Time;durP1;ratioP1;P1;durP2;ratioP2;P2;SDS_P1;SDS_P2;PMS_P1;PMS_P2;Temp;Humidity;BMP_temperature;BMP_pressure;BME280_temperature;BME280_humidity;BME280_pressure;Samples;Min_cycle;Max_cycle;Signal;HPM_P1;HPM_P2
2023/03/12 00:00:22;;;;;;;4.50;2.50;;;;;;;-2.04;100.00;92481.28;2043399;29;21738;-87
2023/03/12 00:01:29;;;;;;;5.75;2.80;;;;;;;-2.10;100.00;92482.69;2044217;28;20041;-86
2023/03/12 00:02:30;;;;;;;4.22;2.55;;;;;;;-2.07;100.00;92471.50;2044374;28;20714;-86
2023/03/12 00:03:31;;;;;;;5.80;2.75;;;;;;;-2.01;100.00;92485.06;2040221;28;20031;-87
2023/03/12 00:04:34;;;;;;;5.25;2.88;;;;;;;-2.00;100.00;92477.97;2050296;28;20523;-85
2023/03/12 00:05:38;;;;;;;5.68;2.70;;;;;;;-2.00;100.00;92475.34;2050631;28;20061;-85
2023/03/12 00:06:39;;;;;;;5.35;2.97;;;;;;;-1.97;100.00;92479.88;2056643;28;20029;-85
2023/03/12 00:07:40;;;;;;;5.30;2.80;;;;;;;-1.97;100.00;92479.88;2065070;28;20033;-85
2023/03/12 00:08:42;;;;;;;4.50;2.65;;;;;;;-1.97;100.00;92485.13;2063840;28;20034;-85
2023/03/12 00:09:44;;;;;;;3.97;2.17;;;;;;;-1.93;100.00;92478.06;2047584;28;20102;-84
2023/03/12 00:10:45;;;;;;;6.30;2.80;;;;;;;-1.98;100.00;92481.72;2043311;28;20041;-84
2023/03/12 00:11:46;;;;;;;3.58;2.38;;;;;;;-1.93;100.00;92489.31;2041512;28;20023;-86
2023/03/12 00:12:47;;;;;;;4.10;2.30;;;;;;;-1.92;100.00;92490.81;2042893;28;20417;-85
2023/03/12 00:13:53;;;;;;;5.28;2.50;;;;;;;-1.88;100.00;92483.00;2055249;28;20375;-86
2023/03/12 00:14:54;;;;;;;3.58;2.47;;;;;;;-1.92;100.00;92488.19;2065068;28;20502;-82
2023/03/12 00:15:55;;;;;;;4.38;2.38;;;;;;;-1.90;100.00;92479.97;2047619;28;20023;-85
2023/03/12 00:16:56;;;;;;;5.15;2.13;;;;;;;-1.91;100.00;92483.72;2042756;28;20055;-85
2023/03/12 00:17:58;;;;;;;4.28;2.53;;;;;;;-1.93;100.00;92491.16;2043632;28;20031;-83
2023/03/12 00:19:00;;;;;;;3.72;2.63;;;;;;;-1.95;100.00;92485.50;2044669;28;20122;-86
2023/03/12 00:20:03;;;;;;;4.57;2.55;;;;;;;-1.91;100.00;92489.69;2049935;28;20157;-84
2023/03/12 00:21:05;;;;;;;4.70;2.47;;;;;;;-1.91;100.00;92483.72;2052257;28;20026;-86
2023/03/12 00:22:06;;;;;;;7.10;2.50;;;;;;;-1.93;100.00;92481.44;2041470;28;20455;-83
2023/03/12 00:23:07;;;;;;;3.92;2.75;;;;;;;-1.91;100.00;92486.31;2040653;28;20032;-84
2023/03/12 00:24:08;;;;;;;4.97;2.55;;;;;;;-1.96;100.00;92479.53;2040713;28;20363;-86
2023/03/12 00:25:13;;;;;;;3.63;2.42;;;;;;;-1.77;100.00;92486.50;2044292;28;20038;-86
2023/03/12 00:26:15;;;;;;;4.97;2.20;;;;;;;-1.80;100.00;92481.97;2056511;28;20117;-83
2023/03/12 00:27:17;;;;;;;6.40;2.50;;;;;;;-1.74;100.00;92485.81;2055225;28;20137;-84
2023/03/12 00:28:18;;;;;;;5.07;2.53;;;;;;;-1.91;100.00;92486.31;2040618;28;20699;-83
2023/03/12 00:29:19;;;;;;;7.57;2.40;;;;;;;-1.92;100.00;92482.19;2043458;28;20146;-83
2023/03/12 00:30:21;;;;;;;5.10;2.42;;;;;;;-2.00;100.00;92486.56;2039497;28;20457;-84
2023/03/12 00:31:31;;;;;;;6.07;2.92;;;;;;;-2.00;100.00;92481.34;2045700;28;20033;-85
2023/03/12 00:32:33;;;;;;;6.38;2.70;;;;;;;-2.06;100.00;92478.28;2053266;28;20146;-85
2023/03/12 00:33:34;;;;;;;5.13;2.30;;;;;;;-2.06;100.00;92478.28;2044870;28;20488;-84
2023/03/12 00:34:35;;;;;;;3.38;2.45;;;;;;;-2.09;100.00;92480.84;2046128;28;20023;-83
2023/03/12 00:35:39;;;;;;;5.30;2.40;;;;;;;-2.11;100.00;92477.78;2040835;28;20034;-84
2023/03/12 00:36:41;;;;;;;5.40;3.05;;;;;;;-2.11;100.00;92480.41;2046645;28;20457;-86
2023/03/12 00:37:43;;;;;;;5.05;2.65;;;;;;;-2.12;100.00;92481.53;2041805;28;20031;-86
2023/03/12 00:38:44;;;;;;;3.80;2.40;;;;;;;-2.14;100.00;92476.66;2039476;28;20671;-86
2023/03/12 00:39:45;;;;;;;5.20;2.47;;;;;;;-2.12;100.00;92482.28;2037387;29;20285;-85
2023/03/12 00:40:46;;;;;;;2.85;2.10;;;;;;;-2.14;100.00;92481.13;2042921;28;20803;-85
2023/03/12 00:41:49;;;;;;;6.00;2.30;;;;;;;-2.14;100.00;92474.03;2043726;28;20019;-88
2023/03/12 00:42:50;;;;;;;4.72;2.30;;;;;;;-2.14;100.00;92473.28;2051194;28;20151;-85
2023/03/12 00:43:52;;;;;;;3.63;2.30;;;;;;;-2.16;100.00;92463.13;2048812;28;20058;-85
2023/03/12 00:44:54;;;;;;;5.75;2.30;;;;;;;-2.31;100.00;92467.41;2049871;28;20139;-82
2023/03/12 00:45:55;;;;;;;4.60;2.33;;;;;;;-2.29;100.00;92467.81;2041707;28;20153;-83
2023/03/12 00:46:57;;;;;;;6.22;2.35;;;;;;;-2.24;100.00;92469.38;2054942;28;20097;-85
2023/03/12 00:48:00;;;;;;;3.03;2.10;;;;;;;-2.27;100.00;92472.72;2058534;28;20209;-84
2023/03/12 00:49:01;;;;;;;4.75;2.13;;;;;;;-2.32;100.00;92470.41;2050457;28;20053;-86
2023/03/12 00:50:03;;;;;;;3.63;1.98;;;;;;;-2.30;100.00;92474.16;2055902;28;20050;-85
2023/03/12 00:51:05;;;;;;;3.42;2.35;;;;;;;-2.30;100.00;92471.53;2048248;28;20433;-83
2023/03/12 00:52:06;;;;;;;2.90;2.13;;;;;;;-2.35;100.00;92473.69;2044131;28;20059;-85
2023/03/12 00:53:07;;;;;;;4.07;2.20;;;;;;;-2.39;100.00;92468.41;2053518;28;20022;-84
2023/03/12 00:54:08;;;;;;;3.72;2.22;;;;;;;-2.30;100.00;92468.16;2048804;28;20068;-83
2023/03/12 00:55:09;;;;;;;4.28;2.30;;;;;;;-2.31;100.00;92461.44;2053195;28;20048;-85
2023/03/12 00:56:11;;;;;;;3.90;2.28;;;;;;;-2.37;100.00;92466.22;2055356;28;20026;-85
2023/03/12 00:57:12;;;;;;;2.88;1.95;;;;;;;-2.36;100.00;92470.34;2051491;28;20151;-85
2023/03/12 00:58:13;;;;;;;5.32;2.38;;;;;;;-2.46;100.00;92465.66;2050209;28;20086;-84
2023/03/12 00:59:14;;;;;;;3.95;2.30;;;;;;;-2.38;100.00;92463.91;2036958;28;20466;-86
2023/03/12 01:00:16;;;;;;;4.40;2.25;;;;;;;-2.54;100.00;92462.19;2053977;28;20079;-85
2023/03/12 01:01:17;;;;;;;3.15;1.90;;;;;;;-2.49;100.00;92466.38;2042919;28;20514;-85
2023/03/12 01:02:18;;;;;;;4.50;2.30;;;;;;;-2.47;100.00;92468.63;2038436;28;20023;-83
2023/03/12 01:03:19;;;;;;;5.57;2.38;;;;;;;-2.50;100.00;92466.72;2042325;28;20034;-86
2023/03/12 01:04:20;;;;;;;5.57;2.25;;;;;;;-2.55;100.00;92465.16;2043298;28;20031;-85
2023/03/12 01:05:22;;;;;;;5.93;2.20;;;;;;;-2.55;100.00;92478.22;2042768;28;20070;-87
2023/03/12 01:06:23;;;;;;;2.88;2.10;;;;;;;-2.51;100.00;92473.06;2044242;28;20027;-86
2023/03/12 01:07:24;;;;;;;5.30;2.30;;;;;;;-2.58;100.00;92471.09;2046897;28;20073;-85
2023/03/12 01:08:26;;;;;;;3.67;1.92;;;;;;;-2.59;100.00;92466.94;2043852;28;20066;-85
2023/03/12 01:09:27;;;;;;;3.38;1.80;;;;;;;-2.65;100.00;92470.97;2044187;28;20031;-83
2023/03/12 01:10:28;;;;;;;3.25;2.03;;;;;;;-2.64;100.00;92470.59;2046374;28;20023;-84
2023/03/12 01:11:31;;;;;;;3.65;2.50;;;;;;;-2.64;100.00;92470.59;2042855;28;20160;-84
2023/03/12 01:12:33;;;;;;;5.53;2.50;;;;;;;-2.66;100.00;92470.22;2056175;28;20041;-86
2023/03/12 01:13:34;;;;;;;4.95;2.42;;;;;;;-2.69;100.00;92470.16;2046937;28;20503;-85
2023/03/12 01:14:35;;;;;;;4.95;2.13;;;;;;;-2.63;100.00;92468.78;2042365;28;20035;-83
2023/03/12 01:15:36;;;;;;;3.67;2.28;;;;;;;-2.80;100.00;92475.22;2041422;28;20492;-83
2023/03/12 01:16:38;;;;;;;3.00;2.38;;;;;;;-2.71;100.00;92472.38;2048498;28;20246;-84
2023/03/12 01:17:39;;;;;;;2.40;1.90;;;;;;;-2.74;100.00;92470.44;2042336;28;20334;-84
2023/03/12 01:18:40;;;;;;;3.88;2.03;;;;;;;-2.73;100.00;92472.69;2045252;28;20551;-83
2023/03/12 01:19:42;;;;;;;4.35;2.28;;;;;;;-2.76;100.00;92462.19;2042559;28;20030;-87
2023/03/12 01:20:45;;;;;;;5.30;2.08;;;;;;;-2.74;100.00;92465.22;2048693;28;20026;-84
2023/03/12 01:21:47;;;;;;;4.30;2.13;;;;;;;-2.71;100.00;92472.38;2056609;28;20014;-85
2023/03/12 01:22:51;;;;;;;3.75;2.00;;;;;;;-2.70;100.00;92468.66;2048254;28;20098;-85
2023/03/12 01:23:53;;;;;;;5.75;2.30;;;;;;;-2.67;100.00;92473.94;2045783;28;20070;-85
2023/03/12 01:24:53;;;;;;;3.42;2.10;;;;;;;-2.70;100.00;92466.78;2054708;28;20039;-84
2023/03/12 01:25:56;;;;;;;5.15;2.00;;;;;;;-2.72;100.00;92469.00;2043108;28;20578;-84
2023/03/12 01:26:57;;;;;;;3.15;2.25;;;;;;;-2.73;100.00;92467.47;2051056;28;20130;-85
2023/03/12 01:28:00;;;;;;;6.70;2.35;;;;;;;-2.67;100.00;92463.47;2057287;28;20034;-85
2023/03/12 01:29:02;;;;;;;3.95;2.22;;;;;;;-2.76;100.00;92465.56;2058310;28;20159;-84
2023/03/12 01:30:04;;;;;;;3.95;2.03;;;;;;;-2.68;100.00;92461.94;2053060;28;20566;-85
2023/03/12 01:31:09;;;;;;;3.75;2.30;;;;;;;-2.65;100.00;92466.50;2054963;28;20489;-85
2023/03/12 01:32:10;;;;;;;4.47;2.38;;;;;;;-2.55;100.00;92473.00;2046205;28;20523;-84
2023/03/12 01:33:11;;;;;;;3.97;2.05;;;;;;;-2.55;100.00;92462.53;2042904;28;20054;-85
2023/03/12 01:34:12;;;;;;;3.42;1.95;;;;;;;-2.56;100.00;92461.78;2040170;28;20027;-84
2023/03/12 01:35:13;;;;;;;2.72;2.08;;;;;;;-2.58;100.00;92465.88;2052842;28;20267;-86
2023/03/12 01:36:26;;;;;;;5.25;2.20;;;;;;;-2.67;100.00;92466.09;2052464;28;20113;-85
2023/03/12 01:37:28;;;;;;;4.45;1.98;;;;;;;-2.67;100.00;92471.31;2053003;28;20029;-86
2023/03/12 01:38:29;;;;;;;2.42;1.92;;;;;;;-2.68;100.00;92472.41;2047770;28;20057;-87
2023/03/12 01:39:30;;;;;;;3.10;1.90;;;;;;;-2.71;100.00;92475.75;2043626;28;20031;-83
2023/03/12 01:40:34;;;;;;;4.32;2.28;;;;;;;-2.72;100.00;92471.63;2043369;28;20157;-86
2023/03/12 01:41:35;;;;;;;4.20;2.30;;;;;;;-2.74;100.00;92476.44;2044681;28;20034;-86
2023/03/12 01:42:36;;;;;;;5.28;2.20;;;;;;;-2.78;100.00;92468.50;2052525;28;20034;-86
2023/03/12 01:43:38;;;;;;;3.22;2.00;;;;;;;-2.71;100.00;92470.50;2051678;28;20437;-85
2023/03/12 01:44:55;;;;;;;3.60;1.90;;;;;;;-2.70;100.00;92466.78;2052398;28;20038;-83
2023/03/12 01:46:25;;;;;;;3.72;1.95;;;;;;;-2.81;100.00;92466.63;2054182;28;20042;-85
2023/03/12 01:47:27;;;;;;;;;;;;;;;-2.84;100.00;92472.53;2051979;28;20120;-85
2023/03/12 01:48:35;;;;;;;4.82;2.42;;;;;;;-2.79;100.00;92471.47;2050732;28;19925;-85
2023/03/12 01:49:37;;;;;;;4.20;2.05;;;;;;;-2.69;100.00;92468.28;2053266;28;20774;-84
2023/03/12 01:50:38;;;;;;;3.05;1.80;;;;;;;-2.72;100.00;92473.44;2044426;28;20445;-84
2023/03/12 01:51:48;;;;;;;3.03;2.22;;;;;;;-2.75;100.00;92474.91;2049561;28;20023;-85
2023/03/12 01:52:49;;;;;;;5.00;2.30;;;;;;;-2.81;100.00;92468.44;2045858;28;20536;-83
2023/03/12 01:53:55;;;;;;;2.97;2.00;;;;;;;-2.87;100.00;92470.59;2048766;28;20050;-83
2023/03/12 01:55:08;;;;;;;3.90;2.20;;;;;;;-2.75;100.00;92468.94;2047387;28;20033;-84
2023/03/12 01:56:09;;;;;;;2.42;1.90;;;;;;;-2.77;100.00;92474.50;2057959;28;20514;-85
2023/03/12 01:57:15;;;;;;;4.78;2.20;;;;;;;-2.76;100.00;92468.19;2051980;28;20054;-87
2023/03/12 01:58:16;;;;;;;3.67;2.28;;;;;;;-2.79;100.00;92467.00;2052832;28;20019;-85
2023/03/12 01:59:28;;;;;;;4.05;1.95;;;;;;;-2.81;100.00;92473.69;2054350;28;20029;-84
2023/03/12 02:00:29;;;;;;;5.80;2.20;;;;;;;-2.86;100.00;92471.34;2053804;28;20744;-88
2023/03/12 02:01:32;;;;;;;3.17;1.85;;;;;;;-2.89;100.00;92472.81;2039989;28;20031;-83
2023/03/12 02:02:35;;;;;;;3.28;2.38;;;;;;;-2.88;100.00;92471.72;2048604;28;20023;-85
2023/03/12 02:03:36;;;;;;;4.85;1.92;;;;;;;-2.71;100.00;92470.50;2057072;28;20023;-84
2023/03/12 02:04:38;;;;;;;5.35;2.60;;;;;;;-2.79;100.00;92464.38;2055606;28;20093;-86
2023/03/12 02:05:47;;;;;;;4.50;2.13;;;;;;;-2.86;100.00;92471.34;2054239;28;20022;-85
2023/03/12 02:06:57;;;;;;;3.35;2.05;;;;;;;-2.73;100.00;92470.09;2047046;28;20023;-84
2023/03/12 02:07:59;;;;;;;5.60;2.22;;;;;;;-2.64;100.00;92475.84;2059026;28;20027;-85
2023/03/12 02:09:04;;;;;;;3.38;2.38;;;;;;;-2.69;100.00;92476.13;2049757;28;20027;-86
2023/03/12 02:10:05;;;;;;;2.50;1.65;;;;;;;-2.57;100.00;92475.97;2044657;28;20031;-85
2023/03/12 02:11:06;;;;;;;4.43;2.13;;;;;;;-2.48;100.00;92474.97;2048846;28;20522;-86
2023/03/12 02:12:09;;;;;;;2.92;1.90;;;;;;;-2.53;100.00;92468.94;2053219;28;20491;-87
2023/03/12 02:13:10;;;;;;;4.72;2.10;;;;;;;-2.64;100.00;92470.59;2061607;28;20030;-86
2023/03/12 02:14:12;;;;;;;4.10;2.17;;;;;;;-2.64;100.00;92470.59;2054413;28;20027;-85
2023/03/12 02:15:13;;;;;;;3.60;2.10;;;;;;;-2.66;100.00;92472.81;2051352;28;20058;-85
2023/03/12 02:16:14;;;;;;;2.63;1.98;;;;;;;-2.61;100.00;92472.53;2055210;28;20130;-85
2023/03/12 02:17:15;;;;;;;2.22;2.03;;;;;;;-2.52;100.00;92467.06;2056672;28;20448;-86
2023/03/12 02:19:54;;;;;;;3.58;1.80;;;;;;;-2.52;100.00;92469.69;2114514;27;20631;-75
2023/03/12 02:20:57;;;;;;;2.75;2.03;;;;;;;-2.56;100.00;92464.41;2090315;28;20047;-76
2023/03/12 02:22:07;;;;;;;3.90;2.10;;;;;;;-2.59;100.00;92472.19;2086491;28;20061;-75
2023/03/12 02:23:37;;;;;;;2.58;2.08;;;;;;;-2.60;100.00;92471.44;2085655;28;20602;-76
2023/03/12 02:25:02;;;;;;;3.90;1.73;;;;;;;-2.53;100.00;92468.94;2098994;28;20027;-75
2023/03/12 02:26:08;;;;;;;3.00;2.03;;;;;;;-2.46;100.00;92473.50;2093635;28;20036;-76
2023/03/12 02:27:23;;;;;;;3.28;2.00;;;;;;;-2.35;100.00;92471.09;2077902;28;20030;-75
2023/03/12 02:28:33;;;;;;;5.00;2.30;;;;;;;-2.34;100.00;92473.34;2085178;28;20036;-74
2023/03/12 02:30:01;;;;;;;3.05;2.20;;;;;;;-2.31;100.00;92464.03;2094295;28;20055;-76
2023/03/12 02:31:35;;;;;;;2.30;2.08;;;;;;;-2.32;100.00;92465.16;2090357;28;20045;-76
2023/03/12 02:33:14;;;;;;;3.17;2.00;;;;;;;-2.16;100.00;92472.84;2055470;28;20110;-77
2023/03/12 02:34:54;;;;;;;;;;;;;;;;;;;;;
2023/03/12 02:36:36;;;;;;;4.45;2.08;;;;;;;-2.23;100.00;92475.38;2064515;28;20046;-76
2023/03/12 02:37:49;;;;;;;3.97;2.33;;;;;;;-2.21;100.00;92473.91;2094684;28;20040;-76
2023/03/12 02:39:02;;;;;;;2.95;2.05;;;;;;;-2.29;100.00;92472.28;2085485;28;20083;-76
2023/03/12 02:40:36;;;;;;;3.50;2.20;;;;;;;-2.33;100.00;92476.72;2081896;28;20052;-75
2023/03/12 02:41:46;;;;;;;4.60;2.40;;;;;;;-2.42;100.00;92468.34;2104714;28;20032;-78
2023/03/12 02:42:55;;;;;;;7.88;2.38;;;;;;;-2.36;100.00;92470.34;2098097;28;20089;-76
2023/03/12 02:44:14;;;;;;;6.25;2.30;;;;;;;-2.35;100.00;92465.84;2086718;28;20716;-76
2023/03/12 02:45:29;;;;;;;7.55;2.63;;;;;;;-2.36;100.00;92464.34;2108011;28;20039;-76
2023/03/12 02:46:43;;;;;;;4.38;2.22;;;;;;;-2.36;100.00;92472.19;2105027;28;20040;-75
2023/03/12 02:47:51;;;;;;;2.50;2.17;;;;;;;-2.21;100.00;92466.06;2095736;28;20151;-76
2023/03/12 02:49:00;;;;;;;3.38;2.03;;;;;;;-2.00;100.00;92467.50;2093458;28;20045;-76
2023/03/12 02:50:14;;;;;;;3.92;2.22;;;;;;;-2.07;100.00;92478.59;2085803;28;20037;-79
2023/03/12 02:51:21;;;;;;;3.42;2.40;;;;;;;-2.15;100.00;92469.91;2090695;28;20072;-75
2023/03/12 02:52:35;;;;;;;4.28;2.42;;;;;;;-2.14;100.00;92465.44;2084668;28;20033;-76
2023/03/12 02:53:45;;;;;;;3.78;2.35;;;;;;;-2.19;100.00;92465.72;2081319;28;20587;-76
2023/03/12 02:54:53;;;;;;;3.78;2.65;;;;;;;-2.22;100.00;92472.41;2093321;28;20033;-76
2023/03/12 02:56:03;;;;;;;3.55;2.20;;;;;;;-2.24;100.00;92466.75;2092443;28;20603;-76
2023/03/12 02:57:11;;;;;;;3.58;2.42;;;;;;;-2.24;100.00;92466.75;2094158;28;20053;-77
2023/03/12 02:58:22;;;;;;;5.15;2.75;;;;;;;-2.22;100.00;92469.03;2096999;28;20041;-76
2023/03/12 02:59:30;;;;;;;;;;;;;;;-2.20;100.00;92470.19;2100153;28;20348;-78
2023/03/12 03:00:36;;;;;;;3.63;2.40;;;;;;;-2.18;100.00;92465.38;2085459;28;19925;-75
2023/03/12 03:01:43;;;;;;;2.95;2.40;;;;;;;-2.08;100.00;92464.75;2084337;28;20033;-75
2023/03/12 03:02:48;;;;;;;3.85;2.60;;;;;;;-2.11;100.00;92469.94;2086195;28;20152;-75
2023/03/12 03:03:54;;;;;;;5.45;2.63;;;;;;;-2.16;100.00;92465.75;2086323;28;20080;-75
2023/03/12 03:04:57;;;;;;;3.45;2.60;;;;;;;-2.13;100.00;92464.31;2079880;28;20041;-75
2023/03/12 03:06:00;;;;;;;5.32;2.70;;;;;;;-2.09;100.00;92463.25;2076091;28;20077;-74
2023/03/12 03:07:05;;;;;;;6.18;2.75;;;;;;;-2.12;100.00;92450.09;2086002;28;20029;-76
2023/03/12 03:08:08;;;;;;;3.90;2.38;;;;;;;-2.16;100.00;92451.91;2087755;28;20075;-74
2023/03/12 03:09:10;;;;;;;4.63;2.92;;;;;;;-2.21;100.00;92450.34;2077177;28;20029;-76
2023/03/12 03:10:14;;;;;;;4.40;2.53;;;;;;;-2.19;100.00;92450.03;2073168;28;20476;-75
2023/03/12 03:11:15;;;;;;;5.15;2.40;;;;;;;-2.17;100.00;92439.94;2085299;28;20049;-76
2023/03/12 03:12:23;;;;;;;7.90;2.70;;;;;;;-2.18;100.00;92449.66;2086332;28;20029;-75
2023/03/12 03:13:24;;;;;;;4.25;2.83;;;;;;;-2.18;100.00;92446.28;2101790;28;20046;-75
2023/03/12 03:14:26;;;;;;;2.67;2.33;;;;;;;-2.20;100.00;92445.88;2076773;28;20400;-74
2023/03/12 03:15:27;;;;;;;3.00;2.60;;;;;;;-2.16;100.00;92439.59;2065271;28;20646;-75
2023/03/12 03:16:29;;;;;;;5.95;2.45;;;;;;;-2.19;100.00;92434.31;2084515;28;20044;-76
2023/03/12 03:17:31;;;;;;;4.05;2.53;;;;;;;-2.22;100.00;92437.63;2084157;28;20029;-75
2023/03/12 03:18:34;;;;;;;5.43;2.63;;;;;;;-2.18;100.00;92435.81;2077610;28;20037;-75
2023/03/12 03:19:36;;;;;;;4.15;2.80;;;;;;;-2.26;100.00;92429.72;2081558;28;20404;-74
2023/03/12 03:20:45;;;;;;;4.30;2.40;;;;;;;-2.28;100.00;92424.09;2077111;28;20629;-75
2023/03/12 03:21:47;;;;;;;6.20;2.55;;;;;;;-2.35;100.00;92416.88;2073612;28;20424;-77
2023/03/12 03:22:49;;;;;;;3.95;2.40;;;;;;;-2.36;100.00;92412.00;2083148;28;20132;-74
2023/03/12 03:23:51;;;;;;;5.85;2.83;;;;;;;-2.46;100.00;92407.34;2101211;28;20497;-75
2023/03/12 03:24:55;;;;;;;6.05;2.65;;;;;;;-2.46;100.00;92402.13;2101382;28;20086;-76
2023/03/12 03:25:59;;;;;;;5.60;2.80;;;;;;;-2.39;100.00;92397.00;2092818;28;20040;-75
2023/03/12 03:27:02;;;;;;;4.63;2.70;;;;;;;-2.34;100.00;92396.69;2093400;28;20047;-75
2023/03/12 03:28:05;;;;;;;4.72;2.60;;;;;;;-2.35;100.00;92392.56;2084929;28;20033;-76
2023/03/12 03:29:46;;;;;;;5.05;2.58;;;;;;;-2.33;100.00;92398.97;2089921;28;20037;-76
2023/03/12 03:30:52;;;;;;;5.22;2.55;;;;;;;-2.25;100.00;92402.44;2092269;28;20040;-76
2023/03/12 03:32:13;;;;;;;5.03;2.00;;;;;;;-2.19;100.00;92421.97;2084691;28;20047;-75
2023/03/12 03:33:24;;;;;;;4.68;2.40;;;;;;;-2.16;100.00;92425.75;2090026;28;20521;-76
2023/03/12 03:34:28;;;;;;;3.65;2.53;;;;;;;-2.09;100.00;92429.22;2088604;28;20173;-75
2023/03/12 03:35:30;;;;;;;4.00;2.30;;;;;;;-2.17;100.00;92443.31;2079960;28;20130;-75
2023/03/12 03:36:34;;;;;;;4.60;2.70;;;;;;;-2.20;100.00;92435.41;2079166;28;20435;-76
2023/03/12 03:37:37;;;;;;;2.50;2.22;;;;;;;-2.13;100.00;92436.28;2070690;28;20042;-74
2023/03/12 03:38:48;;;;;;;5.10;2.58;;;;;;;-2.10;100.00;92438.19;2071444;28;20416;-75
2023/03/12 03:39:52;;;;;;;3.35;2.40;;;;;;;-2.04;100.00;92436.00;2074182;28;20060;-76
2023/03/12 03:41:00;;;;;;;3.85;2.22;;;;;;;-2.08;100.00;92430.72;2073608;28;20593;-74
2023/03/12 03:42:06;;;;;;;2.83;2.25;;;;;;;-2.12;100.00;92427.31;2081555;28;20037;-76
2023/03/12 03:43:13;;;;;;;2.90;2.60;;;;;;;-2.09;100.00;92429.22;2074497;28;20186;-75
2023/03/12 03:44:30;;;;;;;3.45;2.70;;;;;;;-2.12;100.00;92424.69;2072863;28;20073;-74
2023/03/12 03:45:35;;;;;;;4.35;2.53;;;;;;;-2.07;100.00;92421.75;2081466;28;20037;-77
2023/03/12 03:46:38;;;;;;;3.47;2.42;;;;;;;-1.79;100.00;92428.50;2086203;28;20041;-76
2023/03/12 03:47:49;;;;;;;3.78;2.30;;;;;;;-1.49;100.00;92433.75;2087932;28;20091;-76
2023/03/12 03:49:01;;;;;;;4.57;2.38;;;;;;;-1.56;100.00;92442.25;2082438;28;20033;-76
2023/03/12 03:50:35;;;;;;;;;;;;;;;;;;;;;
2023/03/12 03:51:50;;;;;;;5.22;2.38;;;;;;;-1.78;100.00;92440.47;2089497;28;20068;-75
2023/03/12 03:53:12;;;;;;;5.15;2.20;;;;;;;-1.76;100.00;92438.25;2079175;28;20042;-74
2023/03/12 03:54:46;;;;;;;3.42;2.28;;;;;;;-1.57;100.00;92443.38;2083738;28;20048;-76
2023/03/12 03:56:14;;;;;;;5.07;2.80;;;;;;;-1.55;100.00;92443.00;2083068;28;20029;-76
2023/03/12 03:57:18;;;;;;;4.50;2.50;;;;;;;-1.60;100.00;92438.84;2091271;28;20034;-75
2023/03/12 03:58:32;;;;;;;4.65;2.40;;;;;;;-1.69;100.00;92438.34;2092785;28;20032;-74
2023/03/12 03:59:38;;;;;;;4.15;2.88;;;;;;;-1.71;100.00;92435.34;2078576;28;20025;-75
2023/03/12 04:00:53;;;;;;;4.65;2.60;;;;;;;-1.66;100.00;92439.53;2079496;28;20070;-77
2023/03/12 04:02:04;;;;;;;2.33;2.13;;;;;;;-1.68;100.00;92445.09;2087189;28;20033;-76
2023/03/12 04:03:06;;;;;;;2.80;2.13;;;;;;;-1.56;100.00;92452.00;2078962;28;20048;-75
2023/03/12 04:04:08;;;;;;;3.78;2.70;;;;;;;-1.53;100.00;92448.66;2079063;28;20049;-74
2023/03/12 04:05:18;;;;;;;4.68;2.78;;;;;;;-1.54;100.00;92455.00;2079046;28;20231;-75
2023/03/12 04:06:23;;;;;;;3.38;2.58;;;;;;;-1.46;100.00;92451.34;2080155;28;20199;-77
2023/03/12 04:07:36;;;;;;;6.15;2.63;;;;;;;-1.48;100.00;92452.84;2083919;28;20037;-76
2023/03/12 04:08:42;;;;;;;3.50;2.65;;;;;;;-1.53;100.00;92446.06;2087157;28;20411;-76
2023/03/12 04:10:13;;;;;;;5.40;2.90;;;;;;;-1.55;100.00;92448.25;2087741;28;20127;-77
2023/03/12 04:11:28;;;;;;;4.38;2.85;;;;;;;-1.51;100.00;92449.06;2083853;28;20120;-75
2023/03/12 04:12:33;;;;;;;7.97;3.65;;;;;;;-1.52;100.00;92437.81;2082652;28;20064;-75
2023/03/12 04:13:50;;;;;;;6.50;3.03;;;;;;;-1.54;100.00;92442.69;2091205;28;20037;-75
2023/03/12 04:15:06;;;;;;;4.07;2.88;;;;;;;-1.46;100.00;92437.50;2081981;28;20471;-75
2023/03/12 04:16:26;;;;;;;5.30;3.20;;;;;;;-1.39;100.00;92434.97;2075468;28;20030;-75
2023/03/12 04:17:34;;;;;;;4.30;3.17;;;;;;;-1.32;100.00;92430.56;2088894;28;20056;-74
2023/03/12 04:18:41;;;;;;;4.80;3.38;;;;;;;-1.27;100.00;92437.38;2084086;28;20037;-75
2023/03/12 04:19:42;;;;;;;4.72;3.50;;;;;;;-1.30;100.00;92432.84;2088930;28;20037;-75
2023/03/12 04:20:43;;;;;;;6.15;3.70;;;;;;;-1.29;100.00;92427.22;2102109;28;20024;-75
2023/03/12 04:21:46;;;;;;;5.05;3.95;;;;;;;-1.19;100.00;92423.19;2091766;28;20047;-76
2023/03/12 04:22:50;;;;;;;6.65;3.78;;;;;;;-1.24;100.00;92430.63;2088843;28;20048;-76
2023/03/12 04:23:51;;;;;;;7.20;4.03;;;;;;;-1.10;100.00;92433.41;2072138;28;20048;-74
2023/03/12 04:24:52;;;;;;;7.10;4.20;;;;;;;-1.17;100.00;92436.72;2088593;28;20033;-75
2023/03/12 04:25:54;;;;;;;8.73;4.10;;;;;;;-1.23;100.00;92424.28;2096317;28;20032;-75
2023/03/12 04:26:57;;;;;;;4.13;3.72;;;;;;;-1.25;100.00;92429.13;2092302;28;20086;-76
2023/03/12 04:28:00;;;;;;;5.72;4.65;;;;;;;-1.29;100.00;92426.47;2079792;28;20037;-75
2023/03/12 04:29:01;;;;;;;6.18;4.25;;;;;;;-1.27;100.00;92430.25;2071251;28;20030;-76
2023/03/12 04:30:03;;;;;;;5.50;4.18;;;;;;;-1.24;100.00;92426.16;2070994;28;20602;-75
2023/03/12 04:31:07;;;;;;;7.75;4.32;;;;;;;-1.22;100.00;92426.56;2085263;28;20045;-75
2023/03/12 04:32:08;;;;;;;6.32;3.95;;;;;;;-1.22;100.00;92423.94;2084513;28;20033;-76
2023/03/12 04:33:11;;;;;;;7.60;4.05;;;;;;;-1.06;100.00;92426.34;2080352;28;20128;-76
2023/03/12 04:34:47;;;;;;;7.30;4.50;;;;;;;-1.13;100.00;92426.28;2087654;28;20041;-75
2023/03/12 04:35:53;;;;;;;5.43;4.13;;;;;;;-1.08;100.00;92437.19;2089681;28;20090;-75
2023/03/12 04:36:55;;;;;;;6.88;4.10;;;;;;;-1.02;100.00;92435.75;2079509;28;20045;-76
2023/03/12 04:37:57;;;;;;;6.53;4.10;;;;;;;-1.06;100.00;92434.19;2079037;28;20412;-75
2023/03/12 04:38:59;;;;;;;6.28;4.20;;;;;;;-1.04;100.00;92432.00;2084547;28;20519;-75
2023/03/12 04:40:06;;;;;;;6.65;4.05;;;;;;;-0.87;100.00;92433.28;2078755;28;20034;-75
2023/03/12 04:41:12;;;;;;;7.32;4.28;;;;;;;-1.03;100.00;92430.88;2081083;28;20033;-75
2023/03/12 04:42:13;;;;;;;7.82;4.63;;;;;;;-1.07;100.00;92435.31;2084902;28;20135;-74
2023/03/12 04:43:14;;;;;;;7.55;4.55;;;;;;;-0.77;100.00;92440.50;2078704;28;20021;-75
2023/03/12 04:44:16;;;;;;;6.95;4.60;;;;;;;-0.92;100.00;92434.38;2079459;28;20083;-75
2023/03/12 04:45:18;;;;;;;5.90;4.00;;;;;;;-0.96;100.00;92430.94;2088301;28;20043;-74
2023/03/12 04:46:19;;;;;;;8.70;4.82;;;;;;;-0.72;100.00;92436.78;2091839;28;20122;-75
2023/03/12 04:47:21;;;;;;;6.65;4.10;;;;;;;-0.82;100.00;92433.72;2087437;28;20082;-76
2023/03/12 04:48:22;;;;;;;7.13;4.15;;;;;;;-0.85;100.00;92426.53;2094585;28;20111;-75
2023/03/12 04:49:32;;;;;;;5.78;4.10;;;;;;;-0.83;100.00;92434.06;2096075;28;20028;-75
2023/03/12 04:50:39;;;;;;;7.85;4.30;;;;;;;-0.88;100.00;92434.38;2094269;28;20036;-77
2023/03/12 04:51:46;;;;;;;4.38;3.88;;;;;;;-0.84;100.00;92432.53;2078164;28;20033;-76
2023/03/12 04:52:57;;;;;;;6.43;4.00;;;;;;;-0.71;100.00;92433.78;2079024;28;20037;-77
2023/03/12 04:53:59;;;;;;;6.18;4.07;;;;;;;-0.72;100.00;92432.28;2087475;28;20499;-76
2023/03/12 04:55:00;;;;;;;5.35;3.85;;;;;;;-0.65;100.00;92437.63;2077611;28;20132;-75
2023/03/12 04:56:01;;;;;;;7.55;4.07;;;;;;;-0.67;100.00;92431.97;2083641;28;20118;-75
2023/03/12 04:57:03;;;;;;;6.78;4.28;;;;;;;-0.62;100.00;92425.63;2082667;28;20047;-75
2023/03/12 04:58:04;;;;;;;6.93;3.80;;;;;;;-0.60;100.00;92436.53;2070502;28;20539;-75
2023/03/12 04:59:05;;;;;;;5.78;3.85;;;;;;;-0.62;100.00;92433.50;2070774;28;20211;-75
2023/03/12 05:00:11;;;;;;;6.68;4.60;;;;;;;-0.62;100.00;92426.38;2071176;28;20034;-76
2023/03/12 05:01:25;;;;;;;6.15;4.15;;;;;;;-0.72;100.00;92431.53;2070545;28;20061;-75
2023/03/12 05:02:26;;;;;;;6.10;4.75;;;;;;;-0.71;100.00;92425.91;2083768;28;20030;-75
2023/03/12 05:03:28;;;;;;;7.78;5.18;;;;;;;-0.73;100.00;92425.53;2081107;28;20040;-76
2023/03/12 05:04:30;;;;;;;7.63;5.68;;;;;;;-0.72;100.00;92429.66;2081281;28;20116;-75
2023/03/12 05:05:43;;;;;;;7.32;5.15;;;;;;;-0.43;100.00;92432.56;2091168;28;20099;-76
2023/03/12 05:06:47;;;;;;;7.63;5.68;;;;;;;-0.43;100.00;92420.19;2089395;28;20085;-75
2023/03/12 05:07:51;;;;;;;8.55;5.65;;;;;;;-0.51;100.00;92426.47;2079562;28;20568;-76
2023/03/12 05:08:54;;;;;;;7.05;5.57;;;;;;;-0.57;100.00;92420.81;2079466;28;20048;-75
2023/03/12 05:09:56;;;;;;;8.02;6.03;;;;;;;-0.60;100.00;92428.66;2078969;28;20607;-76